Naponee, Nebraska
Current Conditions -  °F | °C
As of 4:15 PM on Saturday 20 Dec 2014 (Local Time) from KHDE Reporting Station
Clear Clear  
Wind Chill: 38°   Ceiling: Unl
Heat Index: 38°   Visibility: 10mi
Dew Point: 33°   Wind: 3mph
Humidity: 80%   Direction: 220°SW
Pressure: 29.97"   Gusts: NA
Location:  40.08°N, 99.14°W
Report Text: KHDE 202215Z AUTO 22003KT 10SM CLR 04/00 A2997 RMK AO2 T00350004
Loading
Personal Weather Stations






























Interactive Weather Map New forecast layout! Learn more

10-Day Weather Forecast

Advertisements
Track Severe Weather on mobile